createdAt,value
2023-03-07T00:01:37.236Z,81.11
2023-03-07T00:04:04.270Z,81.14
2023-03-07T00:06:31.581Z,80.78
2023-03-07T00:09:02.478Z,81.24
2023-03-07T00:11:29.512Z,80.77
2023-03-07T00:13:56.356Z,80.73
2023-03-07T00:16:25.117Z,81.15
2023-03-07T00:18:51.794Z,80.95
2023-03-07T00:21:22.000Z,80.88
2023-03-07T00:23:51.510Z,81.11
2023-03-07T00:26:21.050Z,81.06
2023-03-07T00:28:50.407Z,80.97
2023-03-07T00:31:18.343Z,80.81
2023-03-07T00:33:45.100Z,81.25
2023-03-07T00:36:17.965Z,80.74
2023-03-07T00:38:45.517Z,80.86
2023-03-07T00:41:18.079Z,80.93
2023-03-07T00:43:48.297Z,80.85
2023-03-07T00:46:16.460Z,80.95
2023-03-07T00:48:43.745Z,80.97
2023-03-07T00:51:12.637Z,80.53
2023-03-07T00:53:40.086Z,80.75
2023-03-07T00:56:15.700Z,80.62
2023-03-07T00:58:42.690Z,80.64
2023-03-07T01:01:11.373Z,80.75
2023-03-07T01:03:38.257Z,80.58
2023-03-07T01:06:07.602Z,80.90
2023-03-07T01:08:34.816Z,80.53
2023-03-07T01:11:04.906Z,80.47
2023-03-07T01:13:33.235Z,80.89
2023-03-07T01:16:24.665Z,80.56
2023-03-07T01:18:54.120Z,80.40
2023-03-07T01:21:26.598Z,80.44
2023-03-07T01:23:53.622Z,80.58
2023-03-07T01:26:23.590Z,80.67
2023-03-07T01:28:52.112Z,80.43
2023-03-07T01:31:19.135Z,80.32
2023-03-07T01:33:48.041Z,80.17
2023-03-07T01:36:25.452Z,80.46
2023-03-07T01:38:55.813Z,80.42
2023-03-07T01:41:23.035Z,80.13
2023-03-07T01:43:50.740Z,80.00
2023-03-07T01:46:17.546Z,79.97
2023-03-07T01:49:11.233Z,79.74
2023-03-07T01:51:40.828Z,80.13
2023-03-07T01:54:10.968Z,80.05
2023-03-07T01:56:39.401Z,80.00
2023-03-07T01:59:07.364Z,79.54
2023-03-07T02:01:34.693Z,79.48
2023-03-07T02:04:09.864Z,79.42
2023-03-07T02:06:38.195Z,79.35
2023-03-07T02:09:13.328Z,79.58
2023-03-07T02:11:45.058Z,79.35
2023-03-07T02:14:11.997Z,79.34
2023-03-07T02:16:39.909Z,79.50
2023-03-07T02:19:22.354Z,79.53
2023-03-07T02:22:08.933Z,79.48
2023-03-07T02:25:01.306Z,79.36
2023-03-07T02:27:30.340Z,79.31
2023-03-07T02:29:57.179Z,79.30
2023-03-07T02:32:24.017Z,79.19
2023-03-07T02:34:50.632Z,79.33
2023-03-07T02:37:26.786Z,79.17
2023-03-07T02:39:54.980Z,79.51
2023-03-07T02:42:25.660Z,79.18
2023-03-07T02:44:58.050Z,79.23
2023-03-07T02:47:24.979Z,79.44
2023-03-07T02:49:51.577Z,79.43
2023-03-07T02:52:18.284Z,79.45
2023-03-07T02:54:44.899Z,79.02
2023-03-07T02:57:11.551Z,79.24
2023-03-07T02:59:38.162Z,79.30
2023-03-07T03:02:04.955Z,79.52
2023-03-07T03:04:31.740Z,79.13
2023-03-07T03:06:58.378Z,79.33
2023-03-07T03:09:25.426Z,79.11
2023-03-07T03:11:52.058Z,79.40
2023-03-07T03:14:18.806Z,79.10
2023-03-07T03:16:45.476Z,79.06
2023-03-07T03:19:12.173Z,79.03
2023-03-07T03:21:38.972Z,79.04
2023-03-07T03:24:09.142Z,79.20
2023-03-07T03:26:36.759Z,79.15
2023-03-07T03:29:05.360Z,78.95
2023-03-07T03:31:33.274Z,78.86
2023-03-07T03:33:59.991Z,79.08
2023-03-07T03:36:27.737Z,79.06
2023-03-07T03:38:59.095Z,78.85
2023-03-07T03:41:26.409Z,78.94
2023-03-07T03:43:53.037Z,79.13
2023-03-07T03:46:20.454Z,79.27
2023-03-07T03:48:56.512Z,78.83
2023-03-07T03:51:24.627Z,79.24
2023-03-07T03:53:51.492Z,79.19
2023-03-07T03:56:21.186Z,79.11
2023-03-07T03:58:49.717Z,79.39
2023-03-07T04:01:16.513Z,79.16
2023-03-07T04:03:46.134Z,79.26
2023-03-07T04:06:25.322Z,79.06
2023-03-07T04:08:53.413Z,79.07
2023-03-07T04:11:21.271Z,79.14
2023-03-07T04:13:48.093Z,79.40
2023-03-07T04:16:15.401Z,79.32
2023-03-07T04:18:42.937Z,79.32
2023-03-07T04:21:11.193Z,79.42
2023-03-07T04:23:38.244Z,79.23
2023-03-07T04:26:06.961Z,79.34
2023-03-07T04:28:46.389Z,79.54
2023-03-07T04:31:28.770Z,79.69
2023-03-07T04:33:56.431Z,79.41
2023-03-07T04:36:25.032Z,79.62
2023-03-07T04:38:51.958Z,79.57
2023-03-07T04:41:23.779Z,79.54
2023-03-07T04:43:50.536Z,79.55
2023-03-07T04:46:18.274Z,79.72
2023-03-07T04:48:46.220Z,79.79
2023-03-07T04:51:13.171Z,79.57
2023-03-07T04:53:39.832Z,79.72
2023-03-07T04:56:08.381Z,79.67
2023-03-07T04:58:35.904Z,79.73
2023-03-07T05:01:04.704Z,79.97
2023-03-07T05:03:32.097Z,79.79
2023-03-07T05:06:02.896Z,79.75
2023-03-07T05:08:29.778Z,79.79
2023-03-07T05:10:57.304Z,80.14
2023-03-07T05:13:23.958Z,80.06
2023-03-07T05:15:55.670Z,79.82
2023-03-07T05:18:25.252Z,80.18
2023-03-07T05:20:52.152Z,80.12
2023-03-07T05:23:19.367Z,79.91
2023-03-07T05:25:49.288Z,79.82
2023-03-07T05:28:17.006Z,80.04
2023-03-07T05:30:47.479Z,80.07
2023-03-07T05:33:15.088Z,80.05
2023-03-07T05:35:41.928Z,80.10
2023-03-07T05:38:08.682Z,80.05
2023-03-07T05:40:35.806Z,80.22
2023-03-07T05:43:02.817Z,80.20
2023-03-07T05:45:29.604Z,80.33
2023-03-07T05:47:56.222Z,80.22
2023-03-07T05:50:23.995Z,80.33
2023-03-07T05:52:50.683Z,80.16
2023-03-07T05:55:17.343Z,80.24
2023-03-07T05:57:44.243Z,80.56
2023-03-07T06:00:11.531Z,80.47
2023-03-07T06:02:38.255Z,80.51
2023-03-07T06:05:05.189Z,80.35
2023-03-07T06:07:31.925Z,80.79
2023-03-07T06:09:58.591Z,80.50
2023-03-07T06:12:27.657Z,80.41
2023-03-07T06:14:54.297Z,80.31
2023-03-07T06:17:20.898Z,80.45
2023-03-07T06:19:48.059Z,80.54
2023-03-07T06:22:14.743Z,80.39
2023-03-07T06:24:41.414Z,80.53
2023-03-07T06:27:08.024Z,80.49
2023-03-07T06:29:34.897Z,80.56
2023-03-07T06:32:01.547Z,80.70
2023-03-07T06:34:29.195Z,80.55
2023-03-07T06:36:55.908Z,80.50
2023-03-07T06:39:22.581Z,80.83
2023-03-07T06:41:50.716Z,80.92
2023-03-07T06:44:18.252Z,80.82
2023-03-07T06:46:45.904Z,80.83
2023-03-07T06:49:12.806Z,80.78
2023-03-07T06:51:39.498Z,80.74
2023-03-07T06:54:06.147Z,80.79
2023-03-07T06:56:34.406Z,80.93
2023-03-07T06:59:01.444Z,80.85
2023-03-07T07:01:28.350Z,80.98
2023-03-07T07:03:55.002Z,80.74
2023-03-07T07:06:21.967Z,80.66
2023-03-07T07:08:48.640Z,80.77
2023-03-07T07:11:15.237Z,81.16
2023-03-07T07:13:41.804Z,81.22
2023-03-07T07:16:08.993Z,81.15
2023-03-07T07:18:35.831Z,81.10
2023-03-07T07:21:02.585Z,80.93
2023-03-07T07:23:29.289Z,81.03
2023-03-07T07:25:56.048Z,81.14
2023-03-07T07:28:23.285Z,81.11
2023-03-07T07:30:49.913Z,81.13
2023-03-07T07:33:17.071Z,80.95
2023-03-07T07:35:44.246Z,81.11
2023-03-07T07:38:11.351Z,81.13
2023-03-07T07:40:38.033Z,81.04
2023-03-07T07:43:04.806Z,81.32
2023-03-07T07:45:32.947Z,81.32
2023-03-07T07:47:59.588Z,81.27
2023-03-07T07:50:26.287Z,81.36
2023-03-07T07:52:54.469Z,81.34
2023-03-07T07:55:21.973Z,81.32
2023-03-07T07:57:48.598Z,81.18
2023-03-07T08:00:19.542Z,81.15
2023-03-07T08:02:46.680Z,81.27
2023-03-07T08:05:13.845Z,81.05
2023-03-07T08:07:40.538Z,81.15
2023-03-07T08:10:08.090Z,81.33
2023-03-07T08:12:34.737Z,81.23
2023-03-07T08:15:01.383Z,81.51
2023-03-07T08:17:30.986Z,81.18
2023-03-07T08:20:01.833Z,81.11
2023-03-07T08:22:28.585Z,81.24
2023-03-07T08:24:55.200Z,81.47
2023-03-07T08:27:21.852Z,81.30
2023-03-07T08:29:49.390Z,81.46
2023-03-07T08:32:16.435Z,81.44
2023-03-07T08:34:43.118Z,81.40
2023-03-07T08:37:10.490Z,81.36
2023-03-07T08:39:37.356Z,81.32
2023-03-07T08:42:04.326Z,81.44
2023-03-07T08:44:31.007Z,81.33
2023-03-07T08:46:57.681Z,81.36
2023-03-07T08:49:24.565Z,81.40
2023-03-07T08:51:51.189Z,81.25
2023-03-07T08:54:17.804Z,81.47
2023-03-07T08:56:44.566Z,81.29
2023-03-07T08:59:11.196Z,81.26
2023-03-07T09:01:39.634Z,81.54
2023-03-07T09:04:07.674Z,81.39
2023-03-07T09:06:34.387Z,81.43
2023-03-07T09:09:01.050Z,81.48
2023-03-07T09:11:27.807Z,81.22
2023-03-07T09:13:54.597Z,81.33
2023-03-07T09:16:22.497Z,81.47
2023-03-07T09:18:51.054Z,81.43
2023-03-07T09:21:17.730Z,81.31
2023-03-07T09:23:44.433Z,81.12
2023-03-07T09:26:11.399Z,81.03
2023-03-07T09:28:38.104Z,81.14
2023-03-07T09:31:10.703Z,81.20
2023-03-07T09:33:37.396Z,81.27
2023-03-07T09:36:08.615Z,80.89
2023-03-07T09:38:36.078Z,80.92
2023-03-07T09:41:41.518Z,81.08
2023-03-07T09:44:17.131Z,81.15
2023-03-07T09:47:02.120Z,80.88
2023-03-07T09:49:53.534Z,80.81
2023-03-07T09:52:25.007Z,81.02
2023-03-07T09:55:01.132Z,81.00
2023-03-07T09:57:33.307Z,80.71
2023-03-07T10:00:14.864Z,80.95
2023-03-07T10:02:53.768Z,80.72
2023-03-07T10:05:38.461Z,80.71
2023-03-07T10:08:07.147Z,80.84
2023-03-07T10:10:42.252Z,80.90
2023-03-07T10:13:17.781Z,80.51
2023-03-07T10:15:47.881Z,80.40
2023-03-07T10:18:36.083Z,80.40
2023-03-07T10:21:24.586Z,80.33
2023-03-07T10:24:39.040Z,80.75
2023-03-07T10:27:08.323Z,80.21
2023-03-07T10:29:44.877Z,80.36
2023-03-07T10:32:20.119Z,79.99
2023-03-07T10:34:53.723Z,79.81
2023-03-07T10:37:21.989Z,80.14
2023-03-07T10:39:56.907Z,79.80
2023-03-07T10:42:26.982Z,79.38
2023-03-07T10:44:54.866Z,79.63
2023-03-07T10:47:27.876Z,79.53
2023-03-07T10:50:02.442Z,79.40
2023-03-07T10:52:39.110Z,79.39
2023-03-07T10:55:31.792Z,79.31
2023-03-07T10:58:21.517Z,79.13
2023-03-07T11:01:19.607Z,78.97
2023-03-07T11:03:54.295Z,78.81
2023-03-07T11:06:40.696Z,78.83
2023-03-07T11:09:11.243Z,79.17
2023-03-07T11:11:38.282Z,79.61
2023-03-07T11:14:13.349Z,79.31
2023-03-07T11:16:59.272Z,78.26
2023-03-07T11:19:33.741Z,75.72
2023-03-07T11:22:03.690Z,73.71
2023-03-07T11:24:51.853Z,71.56
2023-03-07T11:27:44.928Z,71.10
2023-03-07T11:30:38.215Z,71.56
2023-03-07T11:33:17.978Z,72.72
2023-03-07T11:35:56.710Z,73.08
2023-03-07T11:38:34.471Z,73.59
2023-03-07T11:41:28.924Z,73.84
2023-03-07T11:44:14.699Z,74.03
2023-03-07T11:46:53.689Z,73.81
2023-03-07T11:49:50.734Z,74.24
2023-03-07T11:52:57.504Z,74.52
2023-03-07T11:55:47.579Z,74.35
2023-03-07T11:58:51.396Z,74.32
2023-03-07T12:01:23.970Z,74.46
2023-03-07T12:04:12.098Z,74.48
2023-03-07T12:06:56.344Z,74.13
2023-03-07T12:09:45.222Z,73.98
2023-03-07T12:12:27.681Z,73.55
2023-03-07T12:14:54.274Z,73.42
2023-03-07T12:17:42.324Z,72.90
2023-03-07T12:20:30.251Z,72.75
2023-03-07T12:23:22.771Z,72.36
2023-03-07T12:25:54.576Z,71.58
2023-03-07T12:28:28.013Z,71.68
2023-03-07T12:30:58.153Z,71.34
2023-03-07T12:33:51.557Z,71.18
2023-03-07T12:36:42.360Z,70.75
2023-03-07T12:39:28.095Z,70.58
2023-03-07T12:42:01.782Z,70.21
2023-03-07T12:44:46.604Z,70.34
2023-03-07T12:47:22.081Z,70.12
2023-03-07T12:50:00.926Z,69.61
2023-03-07T12:52:53.862Z,69.35
2023-03-07T12:55:39.337Z,69.40
2023-03-07T12:58:32.000Z,68.99
2023-03-07T13:01:02.476Z,68.41
2023-03-07T13:03:45.432Z,68.84
2023-03-07T13:06:18.222Z,68.42
2023-03-07T13:08:49.912Z,68.52
2023-03-07T13:11:19.707Z,68.07
2023-03-07T13:13:46.364Z,68.02
2023-03-07T13:16:32.019Z,68.07
2023-03-07T13:19:36.326Z,67.48
2023-03-07T13:22:23.854Z,67.29
2023-03-07T13:24:55.541Z,66.99
2023-03-07T13:27:45.079Z,66.75
2023-03-07T13:30:11.875Z,66.38
2023-03-07T13:32:56.729Z,66.42
2023-03-07T13:35:29.540Z,65.73
2023-03-07T13:38:13.492Z,65.44
2023-03-07T13:40:48.746Z,65.29
2023-03-07T13:43:55.877Z,64.87
2023-03-07T13:46:31.618Z,64.56
2023-03-07T13:49:00.911Z,64.60
2023-03-07T13:51:29.878Z,64.64
2023-03-07T13:54:11.119Z,64.32
2023-03-07T13:56:42.048Z,64.15
2023-03-07T13:59:14.704Z,63.78
2023-03-07T14:02:01.517Z,63.15
2023-03-07T14:04:41.734Z,62.78
2023-03-07T14:07:31.927Z,62.36
2023-03-07T14:10:22.482Z,62.38
2023-03-07T14:13:17.730Z,62.60
2023-03-07T14:16:22.037Z,62.46
2023-03-07T14:19:11.668Z,62.42
2023-03-07T14:22:29.468Z,61.91
2023-03-07T14:25:08.364Z,61.49
2023-03-07T14:27:50.798Z,61.20
2023-03-07T14:30:18.026Z,60.53
2023-03-07T14:32:44.775Z,60.60
2023-03-07T14:35:15.420Z,60.35
2023-03-07T14:37:44.100Z,60.33
2023-03-07T14:40:29.118Z,60.42
2023-03-07T14:43:16.226Z,60.67
2023-03-07T14:46:09.214Z,60.97
2023-03-07T14:48:38.884Z,60.65
2023-03-07T14:51:17.572Z,60.10
2023-03-07T14:53:44.431Z,59.82
2023-03-07T14:56:14.443Z,59.22
2023-03-07T14:58:53.774Z,58.80
2023-03-07T15:01:20.890Z,58.14
2023-03-07T15:03:53.791Z,57.73
2023-03-07T15:06:23.456Z,57.78
2023-03-07T15:08:52.070Z,57.67
2023-03-07T15:11:40.308Z,57.57
2023-03-07T15:14:14.811Z,56.90
2023-03-07T15:16:46.709Z,56.75
2023-03-07T15:19:43.808Z,56.33
2023-03-07T15:22:18.428Z,56.54
2023-03-07T15:24:48.423Z,56.62
2023-03-07T15:27:22.688Z,56.41
2023-03-07T15:29:49.468Z,56.09
2023-03-07T15:32:40.905Z,55.46
2023-03-07T15:35:07.574Z,55.83
2023-03-07T15:37:36.078Z,55.26
2023-03-07T15:40:08.818Z,55.14
2023-03-07T15:42:48.900Z,54.98
2023-03-07T15:45:33.566Z,54.79
2023-03-07T15:48:03.259Z,54.73
2023-03-07T15:50:30.068Z,54.46
2023-03-07T15:53:09.095Z,53.74
2023-03-07T15:55:38.362Z,53.40
2023-03-07T15:58:13.691Z,52.65
2023-03-07T16:00:41.872Z,52.47
2023-03-07T16:03:29.522Z,51.92
2023-03-07T16:05:58.818Z,52.62
2023-03-07T16:08:26.160Z,52.82
2023-03-07T16:11:05.077Z,52.78
2023-03-07T16:13:40.901Z,52.78
2023-03-07T16:16:20.038Z,53.10
2023-03-07T16:18:47.694Z,53.26
2023-03-07T16:21:16.637Z,53.10
2023-03-07T16:23:43.947Z,53.13
2023-03-07T16:26:16.529Z,53.20
2023-03-07T16:28:44.358Z,53.45
2023-03-07T16:31:13.181Z,53.81
2023-03-07T16:33:40.501Z,54.10
2023-03-07T16:36:08.751Z,54.08
2023-03-07T16:38:35.527Z,53.22
2023-03-07T16:41:06.124Z,53.60
2023-03-07T16:43:38.198Z,53.93
2023-03-07T16:46:15.123Z,53.87
2023-03-07T16:48:42.974Z,53.82
2023-03-07T16:51:18.303Z,53.79
2023-03-07T16:53:45.920Z,53.61
2023-03-07T16:56:25.028Z,53.63
2023-03-07T16:58:52.565Z,54.04
2023-03-07T17:01:19.405Z,54.14
2023-03-07T17:03:46.109Z,54.25
2023-03-07T17:06:16.352Z,54.59
2023-03-07T17:08:45.493Z,55.05
2023-03-07T17:11:19.408Z,55.19
2023-03-07T17:13:47.855Z,55.26
2023-03-07T17:16:19.148Z,55.38
2023-03-07T17:18:45.926Z,55.62
2023-03-07T17:21:15.451Z,55.50
2023-03-07T17:23:44.079Z,55.60
2023-03-07T17:26:31.366Z,55.99
2023-03-07T17:29:01.993Z,55.77
2023-03-07T17:31:28.702Z,55.78
2023-03-07T17:33:55.562Z,55.91
2023-03-07T17:36:22.407Z,56.46
2023-03-07T17:38:49.101Z,56.58
2023-03-07T17:41:15.720Z,56.46
2023-03-07T17:43:42.325Z,56.51
2023-03-07T17:46:10.455Z,56.75
2023-03-07T17:48:38.062Z,56.75
2023-03-07T17:51:09.612Z,57.37
2023-03-07T17:53:37.512Z,57.21
2023-03-07T17:56:09.141Z,57.76
2023-03-07T17:58:35.996Z,57.48
2023-03-07T18:01:02.660Z,57.78
2023-03-07T18:03:29.284Z,57.88
2023-03-07T18:05:55.970Z,58.15
2023-03-07T18:08:22.584Z,58.31
2023-03-07T18:10:49.264Z,58.15
2023-03-07T18:13:16.005Z,58.12
2023-03-07T18:15:46.564Z,58.35
2023-03-07T18:18:13.505Z,58.91
2023-03-07T18:20:40.446Z,58.73
2023-03-07T18:23:07.712Z,58.91
2023-03-07T18:25:34.410Z,59.25
2023-03-07T18:28:02.491Z,59.34
2023-03-07T18:30:29.331Z,59.60
2023-03-07T18:32:56.125Z,59.55
2023-03-07T18:35:23.556Z,59.55
2023-03-07T18:37:50.226Z,59.73
2023-03-07T18:40:19.482Z,60.04
2023-03-07T18:42:46.264Z,59.71
2023-03-07T18:45:12.985Z,59.90
2023-03-07T18:47:39.630Z,60.25
2023-03-07T18:50:08.127Z,60.36
2023-03-07T18:52:34.839Z,60.67
2023-03-07T18:55:01.469Z,60.43
2023-03-07T18:57:28.237Z,60.95
2023-03-07T18:59:54.940Z,60.91
2023-03-07T19:02:22.807Z,61.29
2023-03-07T19:04:49.550Z,61.04
2023-03-07T19:07:16.288Z,61.17
2023-03-07T19:09:44.942Z,61.82
2023-03-07T19:12:12.525Z,61.54
2023-03-07T19:14:39.287Z,62.09
2023-03-07T19:17:06.425Z,61.76
2023-03-07T19:19:35.864Z,61.76
2023-03-07T19:22:02.532Z,62.14
2023-03-07T19:24:29.105Z,62.29
2023-03-07T19:26:55.992Z,62.61
2023-03-07T19:29:22.619Z,62.49
2023-03-07T19:31:49.372Z,62.42
2023-03-07T19:34:16.231Z,62.65
2023-03-07T19:36:42.909Z,62.86
2023-03-07T19:39:14.609Z,62.99
2023-03-07T19:41:41.254Z,63.21
2023-03-07T19:44:12.173Z,63.47
2023-03-07T19:46:46.017Z,63.54
2023-03-07T19:49:16.629Z,63.47
2023-03-07T19:51:43.565Z,63.46
2023-03-07T19:54:13.855Z,63.61
2023-03-07T19:56:42.646Z,63.93
2023-03-07T19:59:09.322Z,63.61
2023-03-07T20:01:36.063Z,63.98
2023-03-07T20:04:04.821Z,63.88
2023-03-07T20:06:31.858Z,64.10
2023-03-07T20:09:00.602Z,64.14
2023-03-07T20:11:35.040Z,64.38
2023-03-07T20:14:04.946Z,64.22
2023-03-07T20:16:32.916Z,64.12
2023-03-07T20:19:02.080Z,64.53
2023-03-07T20:21:29.535Z,64.66
2023-03-07T20:24:00.356Z,64.61
2023-03-07T20:26:32.801Z,64.64
2023-03-07T20:29:00.175Z,65.03
2023-03-07T20:31:28.049Z,64.74
2023-03-07T20:33:55.110Z,64.65
2023-03-07T20:36:27.710Z,64.94
2023-03-07T20:38:56.986Z,65.24
2023-03-07T20:41:26.368Z,65.14
2023-03-07T20:43:53.771Z,64.92
2023-03-07T20:46:22.101Z,65.06
2023-03-07T20:48:49.411Z,65.29
2023-03-07T20:51:22.045Z,65.20
2023-03-07T20:53:49.951Z,65.54
2023-03-07T20:56:17.932Z,65.50
2023-03-07T20:58:45.253Z,65.90
2023-03-07T21:01:12.966Z,65.99
2023-03-07T21:03:39.696Z,65.79
2023-03-07T21:06:06.826Z,66.16
2023-03-07T21:08:36.298Z,66.12
2023-03-07T21:11:12.896Z,66.13
2023-03-07T21:13:43.392Z,66.20
2023-03-07T21:16:13.993Z,66.16
2023-03-07T21:18:41.367Z,66.37
2023-03-07T21:21:10.443Z,66.25
2023-03-07T21:23:37.282Z,66.30
2023-03-07T21:26:07.053Z,66.20
2023-03-07T21:28:35.376Z,66.46
2023-03-07T21:31:04.590Z,66.51
2023-03-07T21:33:32.195Z,66.55
2023-03-07T21:35:59.275Z,66.49
2023-03-07T21:38:26.465Z,66.32
2023-03-07T21:40:56.937Z,66.48
2023-03-07T21:43:24.864Z,66.32
2023-03-07T21:45:51.589Z,66.41
2023-03-07T21:48:19.432Z,66.68
2023-03-07T21:50:49.783Z,66.82
2023-03-07T21:53:16.499Z,66.68
2023-03-07T21:56:13.650Z,66.42
2023-03-07T21:58:41.085Z,66.79
2023-03-07T22:01:26.209Z,66.66
2023-03-07T22:03:57.608Z,66.42
2023-03-07T22:06:25.751Z,66.47
2023-03-07T22:08:52.551Z,66.25
2023-03-07T22:11:19.313Z,66.36
2023-03-07T22:13:46.095Z,66.46
2023-03-07T22:16:15.919Z,66.27
2023-03-07T22:18:42.887Z,66.00
2023-03-07T22:21:13.624Z,66.24
2023-03-07T22:23:40.853Z,66.17
2023-03-07T22:26:09.770Z,66.34
2023-03-07T22:28:36.871Z,66.28
2023-03-07T22:31:09.691Z,66.10
2023-03-07T22:33:39.459Z,66.21
2023-03-07T22:36:08.588Z,66.08
2023-03-07T22:38:35.291Z,66.32
2023-03-07T22:41:03.471Z,66.42
2023-03-07T22:43:32.167Z,66.33
2023-03-07T22:46:00.213Z,66.52
2023-03-07T22:48:27.380Z,66.47
2023-03-07T22:50:54.562Z,66.44
2023-03-07T22:53:21.511Z,66.59
2023-03-07T22:55:48.346Z,66.57
2023-03-07T22:58:16.101Z,66.56
2023-03-07T23:00:44.459Z,66.79
2023-03-07T23:03:12.053Z,66.77
2023-03-07T23:05:38.737Z,66.72
2023-03-07T23:08:05.463Z,66.91
2023-03-07T23:10:32.274Z,66.58
2023-03-07T23:12:59.442Z,66.98
2023-03-07T23:15:27.685Z,66.96
2023-03-07T23:17:54.717Z,66.69
2023-03-07T23:20:25.440Z,66.70
2023-03-07T23:22:52.690Z,66.86
2023-03-07T23:25:20.045Z,66.91
2023-03-07T23:27:46.790Z,66.71
2023-03-07T23:30:13.828Z,66.74
2023-03-07T23:32:40.496Z,66.97
2023-03-07T23:35:07.463Z,66.82
2023-03-07T23:37:35.494Z,66.86
2023-03-07T23:40:02.304Z,67.18
2023-03-07T23:42:28.970Z,66.98
2023-03-07T23:44:56.735Z,67.12
2023-03-07T23:47:23.333Z,66.91
2023-03-07T23:49:49.979Z,67.09
2023-03-07T23:52:16.698Z,66.99
2023-03-07T23:54:46.107Z,67.31
2023-03-07T23:57:12.919Z,67.31
2023-03-07T23:59:39.747Z,67.15
